LTFDLTBJ

Guest
Details From LTFD - BALIKESIR KORFEZ
To LTBJ - ADNAN MENDERES
Flight Number -
Tags generated
Created
Modified
Stats Distance 76 nm / 141 km
Max Altitude 9,000 ft / 2,743 m
Waypoints 3
Social Downloads 1
Likes 0
Share VATSIM

Download

Looking for another format? Having issues loading an existing format? Contact us
Advertisement - Login to hide

Notes

Basic altitude profile: - Ascent Rate: 2500ft/min - Ascent Speed: 250kts - Cruise Altitude: 35000ft - Cruise Speed: 420kts - Descent Rate: 1500ft/min - Descent Speed: 250kts Options: - Use NATs: yes - Use PACOTS: yes - Use low airways: yes - Use high airways: yes

Route

LTFD BERGO LTBJ

ID Type Via Altitude Latitude Longitude Leg Dist Tot Dist Heading (true) Name
O LTFD APT - 0 ft / 0 m 39.55449˚ 27.01393˚ - 0 nm - BALIKESIR KORFEZ
BERGO FIX - 9,000 ft / 2,743 m 38.99889˚ 27.13278˚ 33 nm 33 nm 171° / 171° -
O LTBJ APT - 0 ft / 0 m 38.29221˚ 27.15594˚ 42 nm 76 nm 179° / 179° ADNAN MENDERES

Altitude Profile

Advertisement - Login to hide

LTFD

Details ICAO LTFD (EDO)
Name BALIKESIR KORFEZ
Region Turkey
Timezone Europe/Istanbul (UTC+3.0)
Stats Elevation 50 ft / 15 m (AMSL)
Location 39.554492° 27.013927°
Runways 1
Magnetic Variation 5.029° E

METAR

LTFD 121150Z 27010KT 9999 SCT035 BKN100 17/11 Q1022

Decode

TAF

Not found

Departure Runways

ID Width Length Bearing (true) Bearing (mag) Surface Threshold Offset Overrun Length
05 98 ft / 30 m 6,830 ft / 2,082 m 53.62° 48.59° Concrete 0 ft / 0 m 191 ft / 58 m
23 98 ft / 30 m 6,830 ft / 2,082 m 233.63° 228.60° Concrete 984 ft / 300 m 191 ft / 58 m

LTBJ

Details ICAO LTBJ (ADB)
Name ADNAN MENDERES
Region Turkey
Timezone Europe/Istanbul (UTC+3.0)
Stats Elevation 412 ft / 126 m (AMSL)
Location 38.292210° 27.155939°
Runways 2
Magnetic Variation 4.895° E

METAR

LTBJ 121220Z 19005KT 150V240 9999 FEW030 SCT100 18/11 Q1022 NOSIG RMK RWY16 18007KT 140V210

Decode

TAF

Not found

Destination Runways

ID Width Length Bearing (true) Bearing (mag) Surface Threshold Offset Overrun Length
16L 147 ft / 45 m 10,635 ft / 3,242 m 166.78° 161.89° Asphalt 0 ft / 0 m 197 ft / 60 m
16R 147 ft / 45 m 10,651 ft / 3,246 m 166.71° 161.82° Concrete 0 ft / 0 m 197 ft / 60 m
34L 147 ft / 45 m 10,651 ft / 3,246 m 346.72° 341.83° Concrete 0 ft / 0 m 197 ft / 60 m
34R 147 ft / 45 m 10,635 ft / 3,242 m 346.79° 341.90° Asphalt 0 ft / 0 m 197 ft / 60 m

Approach Navaids

Runway Type Ident Frequency Range Bearing (true) Bearing (mag) Slope Elevation
16L Localiser IIMR 108.50 MHz 18 nm / 33 km 166.52° 161.62° - 412 ft / 126 m (AMSL)
16L Glidescope IIMR 108.50 MHz 10 nm / 19 km 166.78° 161.89° 3.10° 412 ft / 126 m (AMSL)
34R Localiser IMEN 110.30 MHz 18 nm / 33 km 346.86° 341.96° - 412 ft / 126 m (AMSL)
34R Glidescope IMEN 110.30 MHz 10 nm / 19 km 346.79° 341.89° 3.00° 412 ft / 126 m (AMSL)